createdAt,value
2023-01-09T00:20:13.442Z,99176.78
2023-01-09T00:23:21.505Z,99169.72
2023-01-09T00:53:52.690Z,99143.88
2023-01-09T01:16:07.136Z,99117.19
2023-01-09T01:35:37.039Z,99120.19
2023-01-09T01:43:10.912Z,99096.53
2023-01-09T01:46:21.593Z,99106.25
2023-01-09T01:49:08.121Z,99103.59
2023-01-09T02:15:05.076Z,99065.75
2023-01-09T02:18:58.200Z,99059.31
2023-01-09T02:26:16.200Z,99069.03
2023-01-09T02:45:30.731Z,99069.78
2023-01-09T02:56:14.630Z,99067.34
2023-01-09T03:07:13.081Z,99051.94
2023-01-09T03:10:17.796Z,99046.13
2023-01-09T03:13:14.001Z,99047.00
2023-01-09T03:16:07.810Z,99050.47
2023-01-09T03:18:53.587Z,99050.25
2023-01-09T03:21:34.813Z,99042.97
2023-01-09T03:24:18.641Z,99040.97
2023-01-09T03:35:07.255Z,99040.78
2023-01-09T04:53:26.325Z,98959.78
2023-01-09T05:24:21.298Z,98939.19
2023-01-09T05:35:08.536Z,98936.13
2023-01-09T05:38:34.442Z,98933.50
2023-01-09T06:01:04.346Z,98911.22
2023-01-09T06:17:14.459Z,98912.22
2023-01-09T06:19:41.668Z,98918.84
2023-01-09T06:22:08.439Z,98913.97
2023-01-09T06:24:35.869Z,98921.53
2023-01-09T06:27:02.673Z,98910.16
2023-01-09T06:29:29.381Z,98910.41
2023-01-09T06:31:56.147Z,98908.16
2023-01-09T06:34:22.942Z,98909.09
2023-01-09T06:36:49.651Z,98907.19
2023-01-09T06:39:16.358Z,98904.47
2023-01-09T06:44:41.591Z,98905.13
2023-01-09T06:47:08.275Z,98901.91
2023-01-09T06:49:35.006Z,98896.19
2023-01-09T06:52:05.734Z,98897.59
2023-01-09T06:54:32.421Z,98900.69
2023-01-09T06:56:59.189Z,98896.03
2023-01-09T06:59:26.275Z,98901.91
2023-01-09T07:01:53.405Z,98892.09
2023-01-09T07:04:22.191Z,98897.50
2023-01-09T07:06:49.668Z,98893.66
2023-01-09T07:09:16.408Z,98886.59
2023-01-09T07:11:43.170Z,98896.19
2023-01-09T07:14:09.922Z,98886.47
2023-01-09T07:16:36.710Z,98881.59
2023-01-09T07:19:03.379Z,98883.28
2023-01-09T07:21:32.596Z,98887.84
2023-01-09T07:23:59.524Z,98881.69
2023-01-09T07:26:26.512Z,98883.50
2023-01-09T07:28:53.260Z,98880.50
2023-01-09T07:31:20.059Z,98883.91
2023-01-09T07:33:47.075Z,98872.41
2023-01-09T07:36:13.804Z,98881.25
2023-01-09T07:38:40.623Z,98882.09
2023-01-09T07:41:07.363Z,98881.25
2023-01-09T07:43:34.209Z,98891.69
2023-01-09T07:46:01.258Z,98886.41
2023-01-09T07:48:27.995Z,98880.06
2023-01-09T07:50:54.767Z,98893.38
2023-01-09T07:54:11.978Z,98895.06
2023-01-09T07:56:57.255Z,98888.63
2023-01-09T07:59:24.010Z,98894.91
2023-01-09T08:01:50.826Z,98892.94
2023-01-09T08:04:17.751Z,98894.22
2023-01-09T08:06:44.445Z,98904.44
2023-01-09T08:09:11.230Z,98912.25
2023-01-09T08:11:37.925Z,98898.31
2023-01-09T08:14:04.645Z,98906.34
2023-01-09T08:16:33.682Z,98900.09
2023-01-09T08:19:00.653Z,98902.75
2023-01-09T08:21:27.437Z,98897.72
2023-01-09T08:23:54.099Z,98906.34
2023-01-09T08:26:21.569Z,98908.97
2023-01-09T08:28:48.748Z,98906.06
2023-01-09T08:31:15.948Z,98909.91
2023-01-09T08:33:42.692Z,98909.84
2023-01-09T08:36:09.904Z,98898.09
2023-01-09T08:38:36.679Z,98912.34
2023-01-09T08:41:26.376Z,98902.88
2023-01-09T08:44:11.886Z,98906.34
2023-01-09T08:46:57.481Z,98908.78
2023-01-09T08:49:24.219Z,98899.16
2023-01-09T08:51:50.865Z,98911.28
2023-01-09T08:54:17.522Z,98911.81
2023-01-09T08:56:44.689Z,98914.34
2023-01-09T08:59:16.459Z,98907.00
2023-01-09T09:01:46.302Z,98919.22
2023-01-09T09:04:13.037Z,98917.28
2023-01-09T09:06:39.764Z,98916.72
2023-01-09T09:09:09.247Z,98920.53
2023-01-09T09:15:16.555Z,98926.88
2023-01-09T09:21:20.362Z,98925.56
2023-01-09T09:24:13.510Z,98924.97
2023-01-09T09:27:10.116Z,98920.09
2023-01-09T09:29:44.010Z,98926.44
2023-01-09T09:32:16.979Z,98916.59
2023-01-09T09:34:48.229Z,98922.50
2023-01-09T09:37:17.878Z,98928.00
2023-01-09T09:39:47.203Z,98937.88
2023-01-09T09:43:06.104Z,98945.31
2023-01-09T09:46:41.124Z,98943.66
2023-01-09T09:49:38.658Z,98941.72
2023-01-09T09:52:29.054Z,98939.91
2023-01-09T09:55:06.984Z,98939.72
2023-01-09T09:57:37.371Z,98941.63
2023-01-09T10:00:19.994Z,98939.22
2023-01-09T10:03:36.830Z,98944.25
2023-01-09T10:06:07.952Z,98948.69
2023-01-09T10:08:40.322Z,98948.47
2023-01-09T10:11:15.360Z,98956.19
2023-01-09T10:14:00.804Z,98953.16
2023-01-09T10:16:44.649Z,98947.16
2023-01-09T10:19:22.777Z,98939.84
2023-01-09T10:22:01.796Z,98947.31
2023-01-09T10:24:51.082Z,98943.47
2023-01-09T10:27:28.471Z,98951.28
2023-01-09T10:30:09.175Z,98948.06
2023-01-09T10:32:44.750Z,98955.25
2023-01-09T10:35:51.558Z,98950.34
2023-01-09T10:38:52.934Z,98963.56
2023-01-09T10:41:30.880Z,98970.91
2023-01-09T10:44:28.544Z,98965.41
2023-01-09T10:47:50.195Z,98970.19
2023-01-09T10:50:25.607Z,98971.50
2023-01-09T10:52:55.024Z,98964.25
2023-01-09T10:55:41.307Z,98969.03
2023-01-09T10:58:14.264Z,98978.53
2023-01-09T11:01:38.860Z,98976.97
2023-01-09T11:14:40.031Z,98989.34
2023-01-09T11:17:35.510Z,99000.03
2023-01-09T11:21:24.679Z,99000.72
2023-01-09T11:24:00.628Z,98998.09
2023-01-09T11:26:53.985Z,98998.59
2023-01-09T11:29:29.245Z,98994.75
2023-01-09T11:32:11.609Z,98996.44
2023-01-09T11:35:07.617Z,99004.13
2023-01-09T11:37:40.715Z,99012.28
2023-01-09T11:40:18.315Z,99024.06
2023-01-09T11:49:29.375Z,99026.09
2023-01-09T11:52:22.953Z,99039.78
2023-01-09T11:55:01.027Z,99030.91
2023-01-09T11:57:37.897Z,99034.16
2023-01-09T12:00:26.865Z,99042.59
2023-01-09T12:03:23.530Z,99038.72
2023-01-09T12:06:11.538Z,99054.44
2023-01-09T12:15:42.227Z,99037.41
2023-01-09T12:18:54.597Z,99060.84
2023-01-09T12:26:03.249Z,99067.13
2023-01-09T12:35:57.459Z,99085.44
2023-01-09T12:38:36.897Z,99073.81
2023-01-09T12:41:46.536Z,99070.66
2023-01-09T12:45:19.020Z,99069.09
2023-01-09T12:47:47.590Z,99082.31
2023-01-09T12:50:14.387Z,99085.56
2023-01-09T12:52:56.153Z,99085.72
2023-01-09T12:55:24.611Z,99089.47
2023-01-09T12:58:18.583Z,99079.38
2023-01-09T13:00:53.209Z,99079.28
2023-01-09T13:03:31.804Z,99089.25
2023-01-09T13:06:06.159Z,99083.13
2023-01-09T13:09:05.600Z,99082.50
2023-01-09T13:12:08.766Z,99078.03
2023-01-09T13:14:56.634Z,99091.50
2023-01-09T13:20:34.354Z,99099.50
2023-01-09T13:23:21.855Z,99105.47
2023-01-09T13:26:01.601Z,99120.38
2023-01-09T13:29:02.949Z,99110.25
2023-01-09T13:32:03.161Z,99111.00
2023-01-09T13:35:01.847Z,99100.66
2023-01-09T13:37:51.503Z,99097.56
2023-01-09T13:40:39.576Z,99105.84
2023-01-09T13:43:57.621Z,99092.44
2023-01-09T13:46:54.285Z,99097.78
2023-01-09T13:49:48.384Z,99092.28
2023-01-09T13:55:33.590Z,99103.09
2023-01-09T13:58:10.070Z,99110.16
2023-01-09T14:00:43.675Z,99118.81
2023-01-09T14:03:38.530Z,99123.84
2023-01-09T14:06:16.005Z,99134.66
2023-01-09T14:08:47.297Z,99136.06
2023-01-09T14:11:27.961Z,99143.84
2023-01-09T14:14:31.876Z,99151.16
2023-01-09T14:21:25.313Z,99169.53
2023-01-09T14:39:31.969Z,99196.44
2023-01-09T15:16:19.961Z,99224.16
2023-01-09T15:18:49.155Z,99238.72
2023-01-09T15:21:25.233Z,99244.84
2023-01-09T15:23:52.356Z,99250.00
2023-01-09T15:26:29.024Z,99241.00
2023-01-09T15:29:12.053Z,99254.22
2023-01-09T15:31:41.861Z,99252.66
2023-01-09T15:34:18.953Z,99264.69
2023-01-09T15:36:52.955Z,99256.16
2023-01-09T15:39:27.146Z,99262.16
2023-01-09T15:42:13.898Z,99253.63
2023-01-09T15:44:49.761Z,99254.56
2023-01-09T15:51:11.024Z,99264.91
2023-01-09T15:53:58.659Z,99272.22
2023-01-09T16:10:36.096Z,99301.41
2023-01-09T16:13:03.118Z,99299.63
2023-01-09T16:15:33.427Z,99308.16
2023-01-09T16:18:23.912Z,99304.78
2023-01-09T16:21:01.774Z,99308.16
2023-01-09T16:23:32.555Z,99302.03
2023-01-09T16:26:03.113Z,99314.09
2023-01-09T16:28:33.138Z,99300.03
2023-01-09T16:31:04.368Z,99303.91
2023-01-09T16:33:45.756Z,99312.78
2023-01-09T16:48:46.108Z,99312.31
2023-01-09T16:51:18.318Z,99327.22
2023-01-09T16:53:45.361Z,99326.47
2023-01-09T16:56:18.432Z,99335.97
2023-01-09T16:58:46.393Z,99324.88
2023-01-09T17:01:16.115Z,99331.97
2023-01-09T17:03:44.213Z,99335.78
2023-01-09T17:06:32.954Z,99333.44
2023-01-09T17:08:59.659Z,99335.53
2023-01-09T17:11:31.708Z,99330.38
2023-01-09T17:14:02.876Z,99321.81
2023-01-09T17:16:30.276Z,99327.84
2023-01-09T17:18:57.064Z,99319.06
2023-01-09T17:21:25.626Z,99326.25
2023-01-09T17:24:12.517Z,99328.91
2023-01-09T17:27:03.152Z,99333.31
2023-01-09T17:29:30.270Z,99335.34
2023-01-09T17:31:59.511Z,99345.06
2023-01-09T17:34:30.989Z,99346.88
2023-01-09T17:36:57.794Z,99347.63
2023-01-09T17:39:24.521Z,99339.69
2023-01-09T17:41:55.561Z,99332.59
2023-01-09T17:44:22.398Z,99335.34
2023-01-09T17:46:49.205Z,99338.00
2023-01-09T17:49:19.129Z,99349.28
2023-01-09T17:51:54.458Z,99348.56
2023-01-09T17:54:33.738Z,99349.81
2023-01-09T17:57:21.602Z,99358.72
2023-01-09T17:59:48.610Z,99364.53
2023-01-09T18:05:56.888Z,99370.94
2023-01-09T18:08:45.556Z,99362.06
2023-01-09T18:22:37.996Z,99386.47
2023-01-09T18:29:22.799Z,99389.97
2023-01-09T18:35:36.793Z,99387.75
2023-01-09T18:46:26.318Z,99398.84
2023-01-09T18:48:57.008Z,99406.56
2023-01-09T18:51:25.591Z,99409.31
2023-01-09T18:53:52.719Z,99418.59
2023-01-09T18:56:20.228Z,99411.72
2023-01-09T18:58:48.447Z,99410.78
2023-01-09T19:01:16.625Z,99416.06
2023-01-09T19:03:43.477Z,99427.28
2023-01-09T19:06:10.814Z,99426.31
2023-01-09T19:08:37.733Z,99432.13
2023-01-09T19:11:05.138Z,99438.28
2023-01-09T19:13:33.748Z,99435.53
2023-01-09T19:16:07.014Z,99446.75
2023-01-09T19:19:00.616Z,99450.63
2023-01-09T19:21:30.107Z,99452.31
2023-01-09T19:23:58.978Z,99451.19
2023-01-09T19:26:32.613Z,99448.63
2023-01-09T19:29:18.095Z,99457.34
2023-01-09T19:31:59.713Z,99451.25
2023-01-09T19:37:25.338Z,99459.00
2023-01-09T19:39:52.134Z,99454.56
2023-01-09T19:42:19.362Z,99456.69
2023-01-09T19:44:46.417Z,99464.50
2023-01-09T19:47:18.275Z,99451.50
2023-01-09T19:49:44.987Z,99466.19
2023-01-09T19:52:12.083Z,99471.78
2023-01-09T19:54:39.330Z,99474.75
2023-01-09T19:58:16.896Z,99463.47
2023-01-09T20:04:29.084Z,99465.13
2023-01-09T20:06:59.679Z,99476.75
2023-01-09T20:09:39.083Z,99473.50
2023-01-09T20:12:37.483Z,99491.88
2023-01-09T20:15:15.058Z,99487.44
2023-01-09T20:17:43.205Z,99491.06
2023-01-09T20:20:26.491Z,99487.66
2023-01-09T20:34:43.295Z,99494.53
2023-01-09T20:37:52.389Z,99506.78
2023-01-09T20:40:34.891Z,99504.34
2023-01-09T21:20:54.405Z,99564.81
2023-01-09T21:23:52.218Z,99564.09
